Time;durP1;ratioP1;P1;durP2;ratioP2;P2;SDS_P1;SDS_P2;PMS_P1;PMS_P2;Temp;Humidity;BMP_temperature;BMP_pressure;BME280_temperature;BME280_humidity;BME280_pressure;Samples;Min_cycle;Max_cycle;Signal;HPM_P1;HPM_P2
2022/04/26 03:36:58;;;;;;;30.27;19.15;;;4.30;99.90;;;;;;5059462;28;20039;-83
2022/04/26 03:39:25;;;;;;;36.78;21.63;;;4.30;99.90;;;;;;5073339;28;20027;-83
2022/04/26 03:41:51;;;;;;;29.45;18.60;;;4.20;99.90;;;;;;5054993;28;20021;-83
2022/04/26 03:44:18;;;;;;;28.67;18.13;;;4.20;99.90;;;;;;5063322;28;20043;-82
2022/04/26 03:46:44;;;;;;;24.33;16.20;;;4.20;99.90;;;;;;5068791;28;20025;-83
2022/04/26 03:49:09;;;;;;;28.58;17.15;;;4.20;99.90;;;;;;5060360;28;20032;-83
2022/04/26 03:51:41;;;;;;;22.67;15.50;;;4.20;99.90;;;;;;5058412;28;20468;-83
2022/04/26 03:54:06;;;;;;;21.17;14.55;;;4.30;99.90;;;;;;5068089;28;20458;-82
2022/04/26 03:56:33;;;;;;;23.98;16.50;;;4.30;99.90;;;;;;5073098;28;20067;-82
2022/04/26 03:58:59;;;;;;;23.90;16.25;;;4.30;99.90;;;;;;5053077;28;20056;-82
2022/04/26 04:01:24;;;;;;;30.88;16.13;;;4.30;99.90;;;;;;5049592;28;20136;-84
2022/04/26 04:03:50;;;;;;;28.75;17.70;;;4.30;99.90;;;;;;5062551;28;20392;-82
2022/04/26 04:06:15;;;;;;;27.02;17.88;;;4.30;99.90;;;;;;5072959;28;20488;-83
2022/04/26 04:08:42;;;;;;;28.88;17.52;;;4.20;99.90;;;;;;5065644;28;20052;-82
2022/04/26 04:11:07;;;;;;;31.02;19.95;;;4.20;99.90;;;;;;5071920;28;20484;-83
2022/04/26 04:13:41;;;;;;;32.60;21.92;;;4.20;99.90;;;;;;5067559;28;20111;-83
2022/04/26 04:16:07;;;;;;;29.63;19.30;;;4.20;99.90;;;;;;5052678;28;20481;-83
2022/04/26 04:21:20;;;;;;;28.45;19.98;;;4.10;99.90;;;;;;5071241;28;20059;-82
2022/04/26 04:23:47;;;;;;;33.75;20.00;;;4.10;99.90;;;;;;5071674;28;20049;-83
2022/04/26 04:26:13;;;;;;;26.55;17.90;;;4.10;99.90;;;;;;5072635;28;20100;-83
2022/04/26 04:28:49;;;;;;;35.53;22.38;;;4.20;99.90;;;;;;5072494;28;20108;-83
2022/04/26 04:31:15;;;;;;;35.75;20.45;;;4.20;99.90;;;;;;5070259;28;20107;-82
2022/04/26 04:33:43;;;;;;;37.20;20.45;;;4.30;99.90;;;;;;5069093;28;20067;-82
2022/04/26 04:36:09;;;;;;;37.13;22.38;;;4.30;99.90;;;;;;5062652;28;20472;-82
2022/04/26 04:38:36;;;;;;;30.88;18.98;;;4.30;99.90;;;;;;5053689;28;20017;-83
2022/04/26 04:41:01;;;;;;;29.13;19.17;;;4.30;99.90;;;;;;5087982;28;20066;-83
2022/04/26 04:43:30;;;;;;;31.85;20.67;;;4.30;99.90;;;;;;5073486;28;20017;-83
2022/04/26 04:45:56;;;;;;;39.03;23.75;;;4.40;99.90;;;;;;5074609;28;20024;-82
2022/04/26 04:48:22;;;;;;;30.25;19.40;;;4.40;99.90;;;;;;5075774;28;20017;-83
2022/04/26 04:50:47;;;;;;;33.17;20.02;;;4.40;99.90;;;;;;5076562;28;20104;-83
2022/04/26 04:53:13;;;;;;;30.65;20.27;;;4.40;99.90;;;;;;5073155;28;20211;-82
2022/04/26 04:55:53;;;;;;;30.05;18.42;;;4.50;99.90;;;;;;5076429;28;20051;-83
2022/04/26 04:58:18;;;;;;;28.48;18.48;;;4.50;99.90;;;;;;5075478;28;20028;-83
2022/04/26 05:00:44;;;;;;;34.15;20.02;;;4.60;99.90;;;;;;5059687;28;20045;-83
2022/04/26 05:03:09;;;;;;;33.55;23.33;;;4.70;99.90;;;;;;5068298;28;20024;-83
2022/04/26 05:05:41;;;;;;;48.83;28.77;;;4.70;99.90;;;;;;5076093;28;20016;-83
2022/04/26 05:08:09;;;;;;;46.03;28.48;;;4.80;99.90;;;;;;5059466;28;20389;-83
2022/04/26 05:10:36;;;;;;;39.75;25.15;;;4.90;99.90;;;;;;5075652;28;20495;-82
2022/04/26 05:13:02;;;;;;;38.25;25.05;;;4.90;99.90;;;;;;5073036;28;20528;-83
2022/04/26 05:15:28;;;;;;;37.80;23.45;;;5.00;99.90;;;;;;5068411;28;20064;-83
2022/04/26 05:17:53;;;;;;;38.70;23.67;;;5.10;99.90;;;;;;5075644;28;20032;-83
2022/04/26 05:20:21;;;;;;;42.55;26.20;;;5.10;99.90;;;;;;5069057;28;20040;-83
2022/04/26 05:25:37;;;;;;;36.47;23.20;;;5.20;99.90;;;;;;5069094;28;20384;-83
2022/04/26 05:28:03;;;;;;;41.28;21.83;;;5.30;99.90;;;;;;5074659;28;20487;-83
2022/04/26 05:30:30;;;;;;;43.25;24.63;;;5.30;99.90;;;;;;5074902;28;20052;-83
2022/04/26 05:32:55;;;;;;;40.17;25.35;;;5.40;99.90;;;;;;5065788;28;20036;-83
2022/04/26 05:35:22;;;;;;;49.97;28.85;;;5.50;99.90;;;;;;5074078;28;20032;-83
2022/04/26 05:37:49;;;;;;;38.00;25.15;;;5.50;99.90;;;;;;5073290;28;20116;-83
2022/04/26 05:40:17;;;;;;;40.75;26.40;;;5.60;99.90;;;;;;5069931;28;20028;-83
2022/04/26 05:42:43;;;;;;;37.90;25.02;;;5.70;99.90;;;;;;5061404;28;20020;-83
2022/04/26 05:45:11;;;;;;;37.67;22.98;;;5.80;99.90;;;;;;5066956;28;20020;-83
2022/04/26 05:47:44;;;;;;;38.20;23.60;;;5.90;99.90;;;;;;5072727;28;20024;-83
2022/04/26 05:50:11;;;;;;;42.88;25.85;;;6.00;99.90;;;;;;5055714;28;20127;-84
2022/04/26 05:52:37;;;;;;;45.38;27.35;;;6.10;99.90;;;;;;5065084;28;20036;-83
2022/04/26 05:55:07;;;;;;;52.40;30.35;;;6.20;99.90;;;;;;5069576;28;20024;-83
2022/04/26 05:57:40;;;;;;;52.05;31.27;;;6.20;99.90;;;;;;5072572;28;20503;-83
2022/04/26 06:00:07;;;;;;;48.95;31.05;;;6.30;99.90;;;;;;5072584;28;20029;-83
2022/04/26 06:02:40;;;;;;;49.95;31.45;;;6.40;99.90;;;;;;5065726;28;20511;-83
2022/04/26 06:05:06;;;;;;;54.60;34.13;;;6.50;99.90;;;;;;5075060;28;20074;-83
2022/04/26 06:07:33;;;;;;;61.60;36.55;;;6.60;99.90;;;;;;5056373;28;20021;-83
2022/04/26 06:09:59;;;;;;;58.20;34.72;;;6.70;99.90;;;;;;5061793;28;20103;-83
2022/04/26 06:12:28;;;;;;;54.33;31.65;;;6.80;99.90;;;;;;5067695;28;20120;-83
2022/04/26 06:14:57;;;;;;;50.22;29.17;;;6.90;99.90;;;;;;5063491;28;20060;-83
2022/04/26 06:17:23;;;;;;;50.38;29.70;;;6.90;99.90;;;;;;5070181;28;20024;-83
2022/04/26 06:19:49;;;;;;;52.75;30.73;;;7.00;99.90;;;;;;5073215;28;20107;-83
2022/04/26 06:22:15;;;;;;;47.78;27.67;;;7.10;99.90;;;;;;5064836;28;20520;-83
2022/04/26 06:24:46;;;;;;;44.45;28.65;;;7.10;99.90;;;;;;5068644;28;20021;-83
2022/04/26 06:27:12;;;;;;;45.22;27.85;;;7.20;99.90;;;;;;5061751;28;20089;-83
2022/04/26 06:29:44;;;;;;;46.63;29.88;;;7.20;99.90;;;;;;5074019;28;20492;-83
2022/04/26 06:32:10;;;;;;;44.05;26.40;;;7.20;99.90;;;;;;5054788;28;20389;-83
2022/04/26 06:34:37;;;;;;;63.42;33.38;;;7.20;99.90;;;;;;5057312;28;20143;-83
2022/04/26 06:37:02;;;;;;;49.72;27.30;;;7.20;99.90;;;;;;5065834;28;20108;-83
2022/04/26 06:39:28;;;;;;;40.10;27.27;;;7.20;99.90;;;;;;5074435;28;20455;-83
2022/04/26 06:41:54;;;;;;;43.72;26.50;;;7.20;99.90;;;;;;5064819;28;20116;-83
2022/04/26 06:44:19;;;;;;;52.42;32.17;;;7.20;99.90;;;;;;5055551;28;20104;-83
2022/04/26 06:46:45;;;;;;;49.50;30.23;;;7.20;99.90;;;;;;5060773;28;20025;-83
2022/04/26 06:49:12;;;;;;;57.17;35.10;;;7.30;99.90;;;;;;5068766;28;20392;-83
2022/04/26 06:51:44;;;;;;;62.13;36.50;;;7.30;99.90;;;;;;5070720;28;20036;-83
2022/04/26 06:54:12;;;;;;;50.15;32.97;;;7.40;99.90;;;;;;5073228;28;20035;-83
2022/04/26 06:56:40;;;;;;;52.20;30.75;;;7.40;99.90;;;;;;5072026;28;20103;-83
2022/04/26 06:59:06;;;;;;;46.63;30.20;;;7.40;99.90;;;;;;5055069;28;20107;-83
2022/04/26 07:01:36;;;;;;;43.20;26.67;;;7.50;99.90;;;;;;5055991;28;20474;-83
2022/04/26 07:04:02;;;;;;;45.15;28.50;;;7.50;99.90;;;;;;5064879;28;20017;-83
2022/04/26 07:06:28;;;;;;;48.40;28.60;;;7.60;99.90;;;;;;5069317;28;20074;-83
2022/04/26 07:08:53;;;;;;;56.60;34.80;;;7.60;99.90;;;;;;5062984;28;20021;-83
2022/04/26 07:11:25;;;;;;;55.65;34.67;;;7.70;99.90;;;;;;5066825;28;20017;-83
2022/04/26 07:13:52;;;;;;;53.33;31.08;;;7.80;99.90;;;;;;5073810;28;20025;-83
2022/04/26 07:16:25;;;;;;;49.15;29.77;;;7.80;99.90;;;;;;5071170;28;20069;-83
2022/04/26 07:18:50;;;;;;;49.20;30.65;;;7.80;99.90;;;;;;5054125;28;20021;-83
2022/04/26 07:21:17;;;;;;;51.58;32.05;;;7.90;99.90;;;;;;5056198;28;20077;-83
2022/04/26 07:23:42;;;;;;;56.10;33.30;;;7.90;99.90;;;;;;5069478;28;20102;-83
2022/04/26 07:26:08;;;;;;;51.13;32.25;;;7.90;99.90;;;;;;5059752;28;20048;-83
2022/04/26 07:28:33;;;;;;;58.17;36.22;;;8.00;99.90;;;;;;5073052;28;20028;-83
2022/04/26 07:31:00;;;;;;;53.42;34.67;;;8.10;99.90;;;;;;5069417;28;20111;-83
2022/04/26 07:36:11;;;;;;;47.15;30.33;;;8.20;99.90;;;;;;5072164;28;20398;-82
2022/04/26 07:38:37;;;;;;;48.58;30.63;;;8.40;99.90;;;;;;5072735;28;20054;-83
2022/04/26 07:41:11;;;;;;;52.58;31.83;;;8.40;99.90;;;;;;5071333;28;20479;-83
2022/04/26 07:43:36;;;;;;;56.83;35.33;;;8.40;99.90;;;;;;5064084;28;20506;-83
2022/04/26 07:46:06;;;;;;;48.33;31.27;;;8.50;99.90;;;;;;5053964;28;20024;-83
2022/04/26 07:48:33;;;;;;;50.03;32.85;;;8.60;99.90;;;;;;5066617;28;20086;-83
2022/04/26 07:51:00;;;;;;;51.78;31.08;;;8.70;99.90;;;;;;5069581;28;20029;-83
2022/04/26 07:53:27;;;;;;;47.17;31.63;;;8.70;99.90;;;;;;5072521;28;20039;-82
2022/04/26 07:55:55;;;;;;;50.08;30.42;;;8.80;99.90;;;;;;5052995;28;20040;-83
2022/04/26 07:58:20;;;;;;;45.63;30.35;;;8.90;99.90;;;;;;5067644;28;20067;-83
2022/04/26 08:00:46;;;;;;;45.97;30.05;;;8.90;99.90;;;;;;5053753;28;20055;-85
2022/04/26 08:03:16;;;;;;;43.88;30.10;;;9.00;99.90;;;;;;5066357;28;20048;-84
2022/04/26 08:05:42;;;;;;;45.50;29.15;;;9.00;99.90;;;;;;5066207;28;20029;-84
2022/04/26 08:08:08;;;;;;;54.75;31.40;;;9.10;99.90;;;;;;5062786;28;20033;-84
2022/04/26 08:10:35;;;;;;;45.28;30.25;;;9.10;99.90;;;;;;5065744;28;20086;-84
2022/04/26 08:13:00;;;;;;;46.35;30.17;;;9.20;99.90;;;;;;5070644;28;20028;-84
2022/04/26 08:15:26;;;;;;;45.38;30.55;;;9.30;99.90;;;;;;5064966;28;20027;-84
2022/04/26 08:17:55;;;;;;;51.47;32.75;;;9.30;99.90;;;;;;5065590;28;20504;-84
2022/04/26 08:20:22;;;;;;;41.28;28.20;;;9.40;99.90;;;;;;5056412;28;20158;-84
2022/04/26 08:22:50;;;;;;;39.03;25.83;;;9.50;99.90;;;;;;5064108;28;20012;-83
2022/04/26 08:28:01;;;;;;;42.45;26.60;;;9.60;99.90;;;;;;5062243;28;20032;-83
2022/04/26 08:30:27;;;;;;;36.35;25.35;;;9.70;99.90;;;;;;5062847;28;20112;-84
2022/04/26 08:33:10;;;;;;;42.00;26.42;;;9.80;99.90;;;;;;5071785;28;20085;-85
2022/04/26 08:35:36;;;;;;;37.28;23.70;;;9.80;99.90;;;;;;5069587;28;20085;-85
2022/04/26 08:38:02;;;;;;;35.45;21.45;;;10.00;99.90;;;;;;5072036;28;20032;-91
2022/04/26 08:40:27;;;;;;;36.53;23.30;;;10.10;99.90;;;;;;5070395;28;20044;-86
2022/04/26 08:42:53;;;;;;;37.15;21.13;;;10.10;99.90;;;;;;5071434;28;20384;-86
2022/04/26 08:45:21;;;;;;;33.55;20.35;;;10.20;99.90;;;;;;5071002;28;20350;-86
2022/04/26 08:53:21;;;;;;;35.60;20.83;;;10.40;99.90;;;;;;5055963;28;20127;-86
2022/04/26 08:55:55;;;;;;;31.05;20.55;;;10.40;99.90;;;;;;5070228;28;20035;-85
2022/04/26 08:58:22;;;;;;;32.30;18.92;;;10.50;99.90;;;;;;5056472;28;20036;-86
2022/04/26 09:01:10;;;;;;;25.60;17.60;;;10.60;99.90;;;;;;5064595;28;20044;-86
2022/04/26 09:03:38;;;;;;;28.02;18.83;;;10.70;99.90;;;;;;5044165;28;20017;-86
2022/04/26 09:06:07;;;;;;;30.50;18.98;;;10.70;99.90;;;;;;5032296;28;20033;-87
2022/04/26 09:08:34;;;;;;;26.05;18.05;;;10.80;99.90;;;;;;5032274;28;20026;-86
2022/04/26 09:11:00;;;;;;;27.02;15.85;;;10.90;99.90;;;;;;5051321;28;20024;-86
2022/04/26 09:13:27;;;;;;;21.67;13.98;;;10.90;99.90;;;;;;5049174;28;20033;-87
2022/04/26 09:15:56;;;;;;;26.08;17.25;;;11.00;99.90;;;;;;5051648;28;20389;-86
2022/04/26 09:18:27;;;;;;;23.02;14.05;;;11.10;99.90;;;;;;5049098;28;20025;-86
2022/04/26 09:20:57;;;;;;;21.70;12.70;;;11.30;99.90;;;;;;5051052;28;20114;-85
2022/04/26 09:23:34;;;;;;;21.58;13.38;;;11.40;99.90;;;;;;5040201;28;20018;-86
2022/04/26 09:26:08;;;;;;;23.67;13.52;;;11.50;99.90;;;;;;5048061;28;20461;-85
2022/04/26 09:28:39;;;;;;;20.02;13.50;;;11.60;99.90;;;;;;5047634;28;20013;-85
2022/04/26 09:31:25;;;;;;;17.67;11.85;;;11.60;99.90;;;;;;5050822;28;20120;-86
2022/04/26 09:33:57;;;;;;;20.17;12.48;;;11.60;99.90;;;;;;5053025;28;20028;-86
2022/04/26 09:36:26;;;;;;;21.85;12.52;;;11.70;99.90;;;;;;5054029;28;20484;-86
2022/04/26 09:38:57;;;;;;;27.13;14.43;;;11.70;99.90;;;;;;5055191;28;20051;-86
2022/04/26 09:41:26;;;;;;;20.77;13.82;;;11.80;99.90;;;;;;5055646;28;20021;-86
2022/04/26 09:44:09;;;;;;;16.38;11.02;;;11.90;99.90;;;;;;5055301;28;20021;-87
2022/04/26 09:46:44;;;;;;;16.23;10.00;;;12.00;99.90;;;;;;5055185;28;20036;-87
2022/04/26 09:49:23;;;;;;;14.52;7.13;;;12.00;99.90;;;;;;5054043;28;20048;-87
2022/04/26 09:54:35;;;;;;;12.43;8.10;;;12.10;99.90;;;;;;5055213;28;20469;-87
2022/04/26 09:57:05;;;;;;;15.70;10.75;;;12.20;99.90;;;;;;5055205;28;20028;-87
2022/04/26 09:59:42;;;;;;;20.00;9.45;;;12.20;99.90;;;;;;5055072;28;20025;-87
2022/04/26 10:02:24;;;;;;;11.30;7.63;;;12.30;99.90;;;;;;5056306;28;20036;-87
2022/04/26 10:04:55;;;;;;;10.93;7.15;;;12.40;99.90;;;;;;5073065;28;20024;-86
2022/04/26 10:07:26;;;;;;;13.70;6.93;;;12.50;99.90;;;;;;5069311;28;20024;-87
2022/04/26 10:09:52;;;;;;;11.98;6.32;;;12.50;99.90;;;;;;5072804;28;20123;-87
2022/04/26 10:12:21;;;;;;;8.68;6.28;;;12.60;99.90;;;;;;5061565;28;20033;-87
2022/04/26 10:14:48;;;;;;;12.50;5.95;;;12.70;99.90;;;;;;5074438;28;20025;-87
2022/04/26 10:17:19;;;;;;;8.70;5.38;;;12.80;99.90;;;;;;5069038;28;20060;-85
2022/04/26 10:19:45;;;;;;;11.70;7.00;;;12.80;99.90;;;;;;5068356;28;20028;-85
2022/04/26 10:22:14;;;;;;;8.85;5.78;;;12.80;99.90;;;;;;5071321;28;20025;-84
2022/04/26 10:25:09;;;;;;;12.75;7.45;;;12.80;99.90;;;;;;5074964;28;20016;-84
2022/04/26 10:27:35;;;;;;;9.65;6.53;;;12.80;99.90;;;;;;5057069;28;20020;-84
2022/04/26 10:30:00;;;;;;;8.68;5.65;;;12.90;99.90;;;;;;5053660;28;20082;-84
2022/04/26 10:35:24;;;;;;;8.20;6.25;;;13.00;99.90;;;;;;5068702;28;20036;-84
2022/04/26 10:38:12;;;;;;;10.40;6.38;;;13.00;99.90;;;;;;5073959;28;20032;-84
2022/04/26 10:41:02;;;;;;;9.15;5.88;;;13.10;99.90;;;;;;5065945;28;20481;-84
2022/04/26 10:43:29;;;;;;;10.52;4.78;;;13.20;99.90;;;;;;5068183;28;20365;-85
2022/04/26 10:46:15;;;;;;;8.38;4.68;;;13.30;99.90;;;;;;5073562;28;20024;-84
2022/04/26 10:48:42;;;;;;;11.10;5.38;;;13.30;99.90;;;;;;5064292;28;20021;-84
2022/04/26 10:51:36;;;;;;;10.32;5.50;;;13.30;99.90;;;;;;5054084;28;20037;-85
2022/04/26 10:54:05;;;;;;;8.55;5.13;;;13.20;99.90;;;;;;5066087;28;20032;-85
2022/04/26 10:56:34;;;;;;;11.15;5.80;;;13.20;99.90;;;;;;5067688;28;20532;-84
2022/04/26 10:59:01;;;;;;;13.57;6.45;;;13.20;99.90;;;;;;5070027;28;21996;-84
2022/04/26 11:01:29;;;;;;;13.45;6.63;;;13.20;99.90;;;;;;5063604;28;20036;-84
2022/04/26 11:03:56;;;;;;;8.50;6.75;;;13.20;99.90;;;;;;5065443;28;20109;-85
2022/04/26 11:06:38;;;;;;;7.25;6.13;;;13.20;99.90;;;;;;5060532;28;20027;-84
2022/04/26 11:09:12;;;;;;;14.57;7.00;;;13.20;99.90;;;;;;5066990;28;20025;-84
2022/04/26 11:11:55;;;;;;;10.35;7.20;;;13.30;99.90;;;;;;5073709;28;20025;-85
2022/04/26 11:14:21;;;;;;;11.30;7.55;;;13.30;99.90;;;;;;5054167;28;20036;-84
2022/04/26 11:17:00;;;;;;;11.07;7.90;;;13.30;99.90;;;;;;5054988;28;20094;-84
2022/04/26 11:19:31;;;;;;;10.85;8.05;;;13.20;99.90;;;;;;5063006;28;20488;-85
2022/04/26 11:22:21;;;;;;;11.20;8.05;;;13.30;99.90;;;;;;5053068;28;20103;-85
2022/04/26 11:30:39;;;;;;;;;;;13.50;99.90;;;;;;5061241;28;20031;-85
2022/04/26 11:33:14;;;;;;;16.67;8.15;;;13.50;99.90;;;;;;5053925;28;19908;-85
2022/04/26 11:35:41;;;;;;;13.40;8.50;;;13.50;99.90;;;;;;5072286;28;20029;-85
2022/04/26 11:38:14;;;;;;;17.35;8.38;;;13.60;99.90;;;;;;5072814;28;20060;-85
2022/04/26 11:40:51;;;;;;;11.23;7.22;;;13.60;99.90;;;;;;5055612;28;20113;-85
2022/04/26 11:43:26;;;;;;;13.38;8.25;;;13.60;99.90;;;;;;5053081;28;20075;-85
2022/04/26 11:45:55;;;;;;;7.57;6.10;;;13.60;99.90;;;;;;5055136;28;20033;-82
2022/04/26 11:48:24;;;;;;;10.98;5.75;;;13.70;99.90;;;;;;5069934;28;20170;-82
2022/04/26 11:50:52;;;;;;;7.95;4.68;;;13.80;99.90;;;;;;5055553;28;20027;-82
2022/04/26 11:53:21;;;;;;;8.02;5.00;;;13.90;99.90;;;;;;5084439;28;20028;-83
2022/04/26 11:55:55;;;;;;;13.10;6.50;;;13.90;99.90;;;;;;5062722;28;20035;-83
2022/04/26 11:58:22;;;;;;;11.23;6.40;;;14.00;99.90;;;;;;5067879;28;20028;-83
2022/04/26 12:01:02;;;;;;;10.82;6.43;;;14.10;99.90;;;;;;5055473;28;20028;-82
2022/04/26 12:03:40;;;;;;;14.05;6.40;;;14.20;99.90;;;;;;5072349;28;20043;-82
2022/04/26 12:06:08;;;;;;;10.20;6.35;;;14.30;99.90;;;;;;5064978;28;20032;-82
2022/04/26 12:08:45;;;;;;;14.77;8.15;;;14.40;99.90;;;;;;5071956;28;20419;-82
2022/04/26 12:11:30;;;;;;;17.52;7.32;;;14.50;99.90;;;;;;5068561;28;20111;-83
2022/04/26 12:13:59;;;;;;;9.75;6.28;;;14.50;99.90;;;;;;5062414;28;20076;-82
2022/04/26 12:16:31;;;;;;;9.20;4.63;;;14.50;99.90;;;;;;5072270;28;20490;-83
2022/04/26 12:19:03;;;;;;;6.07;4.43;;;14.40;99.90;;;;;;5071399;28;20031;-83
2022/04/26 12:21:46;;;;;;;7.25;4.60;;;14.50;99.90;;;;;;5071417;28;20073;-82
2022/04/26 12:24:17;;;;;;;13.40;5.30;;;14.50;99.90;;;;;;5072048;28;20031;-83
2022/04/26 12:26:59;;;;;;;9.90;5.13;;;14.60;99.90;;;;;;5071182;28;20040;-83
2022/04/26 12:29:28;;;;;;;5.60;3.90;;;14.60;99.90;;;;;;5072865;28;20376;-82
2022/04/26 12:31:54;;;;;;;8.93;4.45;;;14.70;99.90;;;;;;5070677;28;20096;-82
2022/04/26 12:34:31;;;;;;;9.32;4.97;;;14.70;99.90;;;;;;5071836;28;20021;-82
2022/04/26 12:36:59;;;;;;;9.25;5.60;;;14.70;99.90;;;;;;5072392;28;20032;-83
2022/04/26 12:39:48;;;;;;;6.57;4.30;;;14.70;99.90;;;;;;5073054;28;20039;-82
2022/04/26 12:42:16;;;;;;;5.88;4.43;;;14.70;99.90;;;;;;5067430;28;20024;-84
2022/04/26 12:44:56;;;;;;;8.48;4.45;;;14.60;99.90;;;;;;5066573;28;20025;-85
2022/04/26 12:50:28;;;;;;;8.30;4.65;;;14.60;99.90;;;;;;5059396;28;20071;-85
2022/04/26 12:52:59;;;;;;;7.65;5.18;;;14.60;99.90;;;;;;5057741;28;20029;-85
2022/04/26 12:55:30;;;;;;;9.73;5.05;;;14.60;99.90;;;;;;5058082;28;20423;-85
2022/04/26 12:57:58;;;;;;;6.55;4.72;;;14.50;99.90;;;;;;5062018;28;20025;-85
2022/04/26 13:00:25;;;;;;;6.55;4.32;;;14.40;99.90;;;;;;5070943;28;20093;-85
2022/04/26 13:03:05;;;;;;;8.27;4.80;;;14.40;99.90;;;;;;5068638;28;20412;-85
2022/04/26 13:05:46;;;;;;;5.70;4.35;;;14.20;99.90;;;;;;5068342;28;20781;-86
2022/04/26 13:08:14;;;;;;;10.23;4.53;;;14.10;99.90;;;;;;5072505;28;20355;-85
2022/04/26 13:10:42;;;;;;;12.25;4.25;;;14.10;99.90;;;;;;5075145;28;20036;-85
2022/04/26 13:13:09;;;;;;;6.78;3.67;;;14.10;99.90;;;;;;5064472;28;20031;-86
2022/04/26 13:15:35;;;;;;;8.02;4.50;;;14.20;99.90;;;;;;5076383;28;20029;-86
2022/04/26 13:18:01;;;;;;;9.65;5.03;;;14.30;99.90;;;;;;5076152;28;20040;-85
2022/04/26 13:20:44;;;;;;;5.55;3.75;;;14.40;99.90;;;;;;5074981;28;20029;-84
2022/04/26 13:23:10;;;;;;;8.02;3.95;;;14.40;99.90;;;;;;5076074;28;20469;-84
2022/04/26 13:25:43;;;;;;;7.78;4.40;;;14.60;99.90;;;;;;5075471;28;20028;-86
2022/04/26 13:28:10;;;;;;;4.88;3.42;;;14.70;99.90;;;;;;5074943;28;20032;-85
2022/04/26 13:30:43;;;;;;;10.07;4.50;;;14.70;99.90;;;;;;5076212;28;20102;-86
2022/04/26 13:33:09;;;;;;;6.88;4.25;;;14.80;99.90;;;;;;5074542;28;20468;-86
2022/04/26 13:35:42;;;;;;;7.47;3.65;;;14.80;99.90;;;;;;5075539;28;20104;-85
2022/04/26 13:38:12;;;;;;;11.48;3.85;;;14.90;99.90;;;;;;5076150;28;20024;-85
2022/04/26 13:40:40;;;;;;;8.07;3.75;;;15.00;99.90;;;;;;5072693;28;20032;-86
2022/04/26 13:43:07;;;;;;;6.90;3.78;;;15.00;99.90;;;;;;5057462;28;20108;-85
2022/04/26 13:45:40;;;;;;;9.50;3.60;;;15.10;98.80;;;;;;5067344;28;20020;-86
2022/04/26 13:48:13;;;;;;;5.47;3.25;;;15.20;94.60;;;;;;5055890;28;20021;-85
2022/04/26 13:50:47;;;;;;;6.70;3.35;;;15.20;93.80;;;;;;5062016;28;20029;-86
2022/04/26 13:53:13;;;;;;;4.38;3.67;;;15.20;95.00;;;;;;5066525;28;20480;-85
2022/04/26 13:55:41;;;;;;;9.57;3.80;;;15.20;95.20;;;;;;5074622;28;20028;-86
2022/04/26 13:58:09;;;;;;;5.35;3.10;;;15.20;94.10;;;;;;5068880;28;20365;-84
2022/04/26 14:00:36;;;;;;;5.75;3.22;;;15.30;97.20;;;;;;5068942;28;20021;-85
2022/04/26 14:03:03;;;;;;;6.07;3.25;;;15.30;98.10;;;;;;5051132;28;20045;-85
2022/04/26 14:05:31;;;;;;;6.32;3.63;;;15.30;99.90;;;;;;5074317;28;20029;-86
2022/04/26 14:07:56;;;;;;;7.50;4.38;;;15.40;97.60;;;;;;5074535;28;20112;-85
2022/04/26 14:10:22;;;;;;;7.90;3.85;;;15.50;98.40;;;;;;5053769;28;20064;-86
2022/04/26 14:12:48;;;;;;;16.98;3.30;;;15.50;95.60;;;;;;5073291;28;20028;-86
2022/04/26 14:23:34;;;;;;;8.70;4.07;;;15.50;97.50;;;;;;5061686;28;20441;-85
2022/04/26 14:26:17;;;;;;;11.30;3.88;;;15.60;98.70;;;;;;5070606;28;20111;-84
2022/04/26 14:28:44;;;;;;;5.65;3.45;;;15.60;98.70;;;;;;5069781;28;20020;-85
2022/04/26 14:31:28;;;;;;;5.43;3.90;;;15.70;95.80;;;;;;5068933;28;20021;-84
2022/04/26 14:33:53;;;;;;;7.57;3.83;;;15.70;92.70;;;;;;5062046;28;20040;-85
2022/04/26 14:36:29;;;;;;;11.82;4.65;;;15.70;92.60;;;;;;5054435;28;20033;-85
2022/04/26 14:38:55;;;;;;;4.10;3.53;;;15.60;94.30;;;;;;5066892;28;20020;-85
2022/04/26 14:41:20;;;;;;;5.20;3.20;;;15.60;97.70;;;;;;5071086;28;20089;-84
2022/04/26 14:43:54;;;;;;;3.78;2.88;;;15.50;96.60;;;;;;5054185;28;20421;-84
2022/04/26 14:46:20;;;;;;;8.30;3.25;;;15.40;96.60;;;;;;5056581;28;20056;-85
2022/04/26 14:48:52;;;;;;;8.13;4.00;;;15.40;96.00;;;;;;5072331;28;20109;-84
2022/04/26 14:51:17;;;;;;;8.52;4.43;;;15.40;97.90;;;;;;5066887;28;20484;-85
2022/04/26 14:53:45;;;;;;;6.50;4.55;;;15.40;97.50;;;;;;5073494;28;20036;-85
2022/04/26 14:56:17;;;;;;;6.63;4.78;;;15.50;97.40;;;;;;5074177;28;20093;-84
2022/04/26 14:58:43;;;;;;;10.18;4.38;;;15.50;97.70;;;;;;5072136;28;20507;-85
2022/04/26 15:01:10;;;;;;;7.70;4.28;;;15.60;96.80;;;;;;5072114;28;20024;-85
2022/04/26 15:03:36;;;;;;;9.25;4.72;;;15.50;98.40;;;;;;5067834;28;20091;-85
2022/04/26 15:06:26;;;;;;;7.72;4.20;;;15.50;98.80;;;;;;5073634;28;20060;-85
2022/04/26 15:11:39;;;;;;;7.13;3.80;;;15.20;99.90;;;;;;5053937;28;20024;-84
2022/04/26 15:16:49;;;;;;;8.63;4.38;;;14.90;99.90;;;;;;5053764;28;20040;-85
2022/04/26 15:19:15;;;;;;;4.32;3.55;;;14.90;99.90;;;;;;5060393;28;20021;-84
2022/04/26 15:21:47;;;;;;;4.65;3.63;;;14.80;99.90;;;;;;5069631;28;20024;-84
2022/04/26 15:24:13;;;;;;;6.35;3.63;;;14.70;99.90;;;;;;5073428;28;20017;-84
2022/04/26 15:26:40;;;;;;;6.78;3.50;;;14.70;99.90;;;;;;5073438;28;20025;-85
2022/04/26 15:29:08;;;;;;;6.93;3.33;;;14.60;99.90;;;;;;5060874;28;20017;-85
2022/04/26 15:32:28;;;;;;;6.22;3.38;;;14.60;99.90;;;;;;5052196;28;20035;-85
2022/04/26 15:35:56;;;;;;;9.52;3.40;;;14.60;99.90;;;;;;5050964;28;20099;-85
2022/04/26 15:38:22;;;;;;;8.80;3.53;;;14.60;99.90;;;;;;5043813;28;20063;-85
2022/04/26 15:47:37;;;;;;;5.13;3.72;;;14.50;99.90;;;;;;5038553;28;20070;-85
2022/04/26 15:50:23;;;;;;;4.80;3.35;;;14.40;99.90;;;;;;5072725;28;20028;-85
2022/04/26 15:53:27;;;;;;;4.32;3.55;;;14.40;99.90;;;;;;5073100;28;20411;-85
2022/04/26 15:55:52;;;;;;;8.57;3.92;;;14.30;99.90;;;;;;5050704;28;20112;-86
2022/04/26 16:01:47;;;;;;;7.80;3.47;;;14.30;99.90;;;;;;5042190;28;20048;-86
2022/04/26 16:04:24;;;;;;;4.45;3.67;;;14.30;99.90;;;;;;5070517;28;20515;-86
2022/04/26 16:07:35;;;;;;;7.63;3.78;;;14.20;99.90;;;;;;5092347;28;20074;-86
2022/04/26 16:21:50;;;;;;;14.43;6.28;;;14.10;99.90;;;;;;5087692;28;20062;-86
2022/04/26 16:24:17;;;;;;;10.77;5.20;;;14.10;99.90;;;;;;5087081;28;20020;-86
2022/04/26 16:26:43;;;;;;;13.20;6.25;;;14.10;99.90;;;;;;5088396;28;20012;-86
2022/04/26 16:29:47;;;;;;;15.65;6.30;;;14.00;99.90;;;;;;5074377;28;20020;-86
2022/04/26 16:32:12;;;;;;;7.80;5.97;;;14.00;99.90;;;;;;5092738;28;20016;-85
2022/04/26 16:34:44;;;;;;;11.25;6.28;;;14.00;99.90;;;;;;5091052;28;20026;-86
2022/04/26 16:37:09;;;;;;;11.00;6.53;;;13.90;99.90;;;;;;5091360;28;20024;-86
2022/04/26 16:39:35;;;;;;;9.75;5.53;;;13.90;99.90;;;;;;5094710;28;20489;-85
2022/04/26 16:42:08;;;;;;;7.85;5.20;;;13.80;99.90;;;;;;5059469;28;20020;-86
2022/04/26 16:44:33;;;;;;;15.55;6.85;;;13.80;99.90;;;;;;5058789;28;20060;-87
2022/04/26 16:46:59;;;;;;;12.80;6.45;;;13.80;99.90;;;;;;5059771;28;20023;-86
2022/04/26 16:49:25;;;;;;;10.70;6.03;;;13.80;99.90;;;;;;5058906;28;20460;-86
2022/04/26 16:51:50;;;;;;;11.05;7.05;;;13.80;99.90;;;;;;5088113;28;20028;-86
2022/04/26 16:54:18;;;;;;;28.00;6.38;;;13.70;99.90;;;;;;5091206;28;20024;-86
2022/04/26 16:56:44;;;;;;;10.85;6.22;;;13.70;99.90;;;;;;5095415;28;20046;-86
2022/04/26 16:59:48;;;;;;;18.85;6.20;;;13.60;99.90;;;;;;5097513;28;20027;-86
2022/04/26 17:02:14;;;;;;;13.82;6.30;;;13.60;99.90;;;;;;5097668;28;20375;-85
2022/04/26 17:04:46;;;;;;;17.23;5.68;;;13.50;99.90;;;;;;5116628;28;20043;-87
2022/04/26 17:07:12;;;;;;;11.70;6.05;;;13.40;99.90;;;;;;5114133;28;20019;-87
2022/04/26 17:09:48;;;;;;;7.53;5.60;;;13.40;99.90;;;;;;5108812;28;20063;-87
2022/04/26 17:12:14;;;;;;;11.75;5.93;;;13.40;99.90;;;;;;5117307;28;20030;-87
2022/04/26 17:14:41;;;;;;;10.27;6.05;;;13.40;99.90;;;;;;5098931;28;20055;-83
2022/04/26 17:17:08;;;;;;;10.70;5.68;;;13.40;99.90;;;;;;5104246;28;20028;-82
2022/04/26 17:19:34;;;;;;;10.57;5.88;;;13.30;99.90;;;;;;5078541;28;20078;-82
2022/04/26 17:22:01;;;;;;;9.90;5.85;;;13.30;99.90;;;;;;5096320;28;20024;-82
2022/04/26 17:27:12;;;;;;;9.13;5.45;;;13.20;99.90;;;;;;5115318;28;20035;-82
2022/04/26 17:29:38;;;;;;;11.18;5.32;;;13.20;99.90;;;;;;5088744;28;20024;-82
2022/04/26 17:32:05;;;;;;;7.35;5.22;;;13.20;99.90;;;;;;5116998;28;20118;-83
2022/04/26 17:34:30;;;;;;;11.80;5.85;;;13.10;99.90;;;;;;5086154;28;20092;-83
2022/04/26 17:37:01;;;;;;;13.65;5.57;;;13.10;99.90;;;;;;5116328;28;20475;-83
2022/04/26 17:39:28;;;;;;;12.82;6.22;;;13.10;99.90;;;;;;5095609;28;20032;-83